Terminal Aerodrome Forecast
Issued by NWS Brownsville, TX

Home | Current Version | Previous Version | Text Only | Print | Product List | Glossary On
Versions: 1 2 3 4 5 6 7 8 9 10 11 12 13 14 15 16 17 18
000
FTUS44 KBRO 220500
TAFBRO
TAF
KBRO 220524Z 2206/2306 04005KT P6SM VCSH SCT030 BKN050 OVC150
     FM221500 06012KT P6SM VCSH SCT030 BKN060
     FM230100 07006KT P6SM SCT030 BKN060=

USA.gov is the U.S. government's official web portal to all federal, state and local government web resources and services.